Time;durP1;ratioP1;P1;durP2;ratioP2;P2;SDS_P1;SDS_P2;PMS_P1;PMS_P2;Temp;Humidity;BMP_temperature;BMP_pressure;BME280_temperature;BME280_humidity;BME280_pressure;Samples;Min_cycle;Max_cycle;Signal;HPM_P1;HPM_P2
2023/10/28 00:01:14;;;;;;;4.55;2.67;;;10.70;99.90;;;;;;5054028;28;20022;-49
2023/10/28 00:03:41;;;;;;;9.45;2.90;;;10.70;99.90;;;;;;5038711;28;20029;-53
2023/10/28 00:06:10;;;;;;;10.02;2.92;;;10.70;99.90;;;;;;5036521;28;20116;-51
2023/10/28 00:08:36;;;;;;;7.50;2.50;;;10.80;99.90;;;;;;5035529;28;20525;-50
2023/10/28 00:11:04;;;;;;;4.13;2.83;;;10.80;99.90;;;;;;5035543;28;20064;-45
2023/10/28 00:13:30;;;;;;;7.70;2.53;;;10.70;99.90;;;;;;5035540;28;20542;-49
2023/10/28 00:15:56;;;;;;;11.52;2.40;;;10.70;99.90;;;;;;5017753;28;20393;-46
2023/10/28 00:18:22;;;;;;;8.10;2.58;;;10.70;99.90;;;;;;5044861;28;20079;-51
2023/10/28 00:20:47;;;;;;;13.05;2.45;;;10.80;99.90;;;;;;5072827;28;20047;-50
2023/10/28 00:23:17;;;;;;;3.60;2.90;;;10.80;99.90;;;;;;5075079;28;20499;-48
2023/10/28 00:25:43;;;;;;;9.85;2.35;;;10.70;99.90;;;;;;5075084;28;20094;-54
2023/10/28 00:28:09;;;;;;;10.13;3.00;;;10.80;99.90;;;;;;5074937;28;20106;-48
2023/10/28 00:30:39;;;;;;;10.75;3.28;;;10.80;99.90;;;;;;5075242;28;20024;-50
2023/10/28 00:33:05;;;;;;;4.85;3.10;;;10.80;99.90;;;;;;5074899;28;20017;-51
2023/10/28 00:35:30;;;;;;;8.63;2.92;;;10.80;99.90;;;;;;5053264;28;20026;-51
2023/10/28 00:37:56;;;;;;;6.47;2.42;;;10.90;99.90;;;;;;5035080;28;20111;-47
2023/10/28 00:40:30;;;;;;;9.60;2.60;;;10.90;99.90;;;;;;5034844;28;20415;-52
2023/10/28 00:42:58;;;;;;;4.40;3.00;;;10.90;99.90;;;;;;5034923;28;20029;-47
2023/10/28 00:45:24;;;;;;;6.70;3.30;;;10.90;99.90;;;;;;5034851;28;20061;-55
2023/10/28 00:47:52;;;;;;;8.50;3.45;;;10.90;99.90;;;;;;5034875;28;20385;-50
2023/10/28 00:50:18;;;;;;;11.23;3.28;;;11.00;99.90;;;;;;5034762;28;20063;-49
2023/10/28 00:52:45;;;;;;;9.65;3.40;;;11.00;99.90;;;;;;5047053;28;20057;-51
2023/10/28 00:55:15;;;;;;;8.87;2.50;;;11.00;99.90;;;;;;5054662;28;20396;-53
2023/10/28 00:57:43;;;;;;;10.65;3.53;;;11.10;99.90;;;;;;5054834;28;20767;-50
2023/10/28 01:00:10;;;;;;;;;;;11.10;99.90;;;;;;5055104;28;20499;-47
2023/10/28 01:02:38;;;;;;;4.43;3.03;;;11.10;99.90;;;;;;5036452;28;20315;-52
2023/10/28 01:05:06;;;;;;;16.08;3.75;;;11.10;99.90;;;;;;5053927;28;20025;-50
2023/10/28 01:07:32;;;;;;;9.30;3.25;;;11.10;99.90;;;;;;5053656;28;20564;-52
2023/10/28 01:09:58;;;;;;;11.25;3.63;;;11.10;99.90;;;;;;5053483;28;20481;-50
2023/10/28 01:12:26;;;;;;;8.20;3.70;;;11.20;99.90;;;;;;5036462;28;20025;-52
2023/10/28 01:14:53;;;;;;;;;;;11.20;99.90;;;;;;5054744;28;20029;-49
2023/10/28 01:17:21;;;;;;;13.52;3.03;;;11.10;99.90;;;;;;5054129;28;20373;-52
2023/10/28 01:19:47;;;;;;;7.95;3.80;;;11.20;99.90;;;;;;5063444;28;20485;-48
2023/10/28 01:22:13;;;;;;;6.15;3.28;;;11.20;99.90;;;;;;5074112;28;20480;-51
2023/10/28 01:24:39;;;;;;;13.55;4.00;;;11.20;99.90;;;;;;5056184;28;20020;-51
2023/10/28 01:27:04;;;;;;;9.52;4.18;;;11.20;99.90;;;;;;5043112;28;20469;-49
2023/10/28 01:29:30;;;;;;;12.68;3.53;;;11.20;99.90;;;;;;5034059;28;20395;-51
2023/10/28 01:31:58;;;;;;;9.90;3.95;;;11.30;99.90;;;;;;5034320;28;20017;-61
2023/10/28 01:34:24;;;;;;;11.07;4.70;;;11.30;99.90;;;;;;5034005;28;20021;-44
2023/10/28 01:36:50;;;;;;;11.68;4.80;;;11.30;99.90;;;;;;5034002;28;20028;-49
2023/10/28 01:39:16;;;;;;;8.38;4.82;;;11.30;99.90;;;;;;5016124;28;20409;-51
2023/10/28 01:41:42;;;;;;;13.90;4.90;;;11.30;99.90;;;;;;5033729;28;20046;-49
2023/10/28 01:44:08;;;;;;;18.38;5.75;;;11.30;99.90;;;;;;5000348;28;20108;-48
2023/10/28 01:46:34;;;;;;;8.02;4.75;;;11.30;99.90;;;;;;5034014;28;20485;-50
2023/10/28 01:49:00;;;;;;;11.30;5.28;;;11.30;99.90;;;;;;5033662;28;20032;-48
2023/10/28 01:51:25;;;;;;;13.88;5.60;;;11.30;99.90;;;;;;5033594;28;20440;-52
2023/10/28 01:53:51;;;;;;;14.45;5.25;;;11.30;99.90;;;;;;5033592;28;20124;-49
2023/10/28 01:56:17;;;;;;;17.38;5.45;;;11.40;99.90;;;;;;5033848;28;20489;-49
2023/10/28 01:58:43;;;;;;;19.52;5.78;;;11.40;99.90;;;;;;5033517;28;20563;-52
2023/10/28 02:01:08;;;;;;;13.70;6.65;;;11.50;99.90;;;;;;5049123;28;20033;-49
2023/10/28 02:03:34;;;;;;;16.95;6.28;;;11.50;99.90;;;;;;5053380;28;20074;-50
2023/10/28 02:06:00;;;;;;;9.50;4.95;;;11.50;99.90;;;;;;5053329;28;20032;-51
2023/10/28 02:08:25;;;;;;;15.90;6.15;;;11.50;99.90;;;;;;5053491;28;20521;-48
2023/10/28 02:10:51;;;;;;;8.90;4.68;;;11.50;99.90;;;;;;5053303;28;20081;-50
2023/10/28 02:13:16;;;;;;;16.48;5.25;;;11.50;99.90;;;;;;5053215;28;20029;-50
2023/10/28 02:15:44;;;;;;;15.38;5.63;;;11.60;99.90;;;;;;5053192;28;20499;-51
2023/10/28 02:18:10;;;;;;;18.80;6.65;;;11.60;99.90;;;;;;5052300;28;20099;-50
2023/10/28 02:20:36;;;;;;;10.98;5.90;;;11.60;99.90;;;;;;5069133;28;20453;-50
2023/10/28 02:23:02;;;;;;;12.88;5.15;;;11.50;99.90;;;;;;5072996;28;20056;-51
2023/10/28 02:25:28;;;;;;;10.95;5.65;;;11.60;99.90;;;;;;5073022;28;20032;-65
2023/10/28 02:27:53;;;;;;;13.48;5.28;;;11.60;99.90;;;;;;5072911;28;20029;-47
2023/10/28 02:30:19;;;;;;;9.52;5.00;;;11.60;99.90;;;;;;5072319;28;20048;-48
2023/10/28 02:32:45;;;;;;;14.73;5.82;;;11.60;99.90;;;;;;5054993;28;20025;-51
2023/10/28 02:35:11;;;;;;;14.80;6.25;;;11.60;99.90;;;;;;5039934;28;20021;-51
2023/10/28 02:37:37;;;;;;;12.35;5.05;;;11.70;99.90;;;;;;5033241;28;20025;-50
2023/10/28 02:40:03;;;;;;;14.70;6.35;;;11.70;99.90;;;;;;5032915;28;20021;-50
2023/10/28 02:42:29;;;;;;;12.10;5.68;;;11.70;99.90;;;;;;5032725;28;20053;-49
2023/10/28 02:44:54;;;;;;;10.88;5.13;;;11.70;99.90;;;;;;5015184;28;20377;-50
2023/10/28 02:47:20;;;;;;;12.38;5.32;;;11.70;99.90;;;;;;5032815;28;20037;-47
2023/10/28 02:49:46;;;;;;;12.82;5.88;;;11.70;99.90;;;;;;5032746;28;20394;-52
2023/10/28 02:52:12;;;;;;;8.98;4.75;;;11.70;99.90;;;;;;5031265;28;20020;-52
2023/10/28 02:54:38;;;;;;;10.60;5.50;;;11.80;99.90;;;;;;5052843;28;20491;-52
2023/10/28 02:57:04;;;;;;;14.13;4.72;;;11.70;99.90;;;;;;5052592;28;20107;-50
2023/10/28 02:59:29;;;;;;;14.80;4.57;;;11.80;99.90;;;;;;5052640;28;20385;-52
2023/10/28 03:01:55;;;;;;;8.15;4.72;;;11.70;99.90;;;;;;5052811;28;20017;-51
2023/10/28 03:04:21;;;;;;;12.32;4.90;;;11.70;99.90;;;;;;5052616;28;20021;-51
2023/10/28 03:06:47;;;;;;;10.32;4.63;;;11.70;99.90;;;;;;5052600;28;20392;-52
2023/10/28 03:09:13;;;;;;;12.30;4.72;;;11.70;99.90;;;;;;5036273;28;20034;-49
2023/10/28 03:11:38;;;;;;;13.02;4.03;;;11.70;99.90;;;;;;5032672;28;20017;-54
2023/10/28 03:14:05;;;;;;;16.05;4.40;;;11.70;99.90;;;;;;5032502;28;20018;-50
2023/10/28 03:16:31;;;;;;;17.48;4.05;;;11.60;99.90;;;;;;5032845;28;20493;-68
2023/10/28 03:18:57;;;;;;;18.15;4.05;;;11.60;99.90;;;;;;5037654;28;20413;-51
2023/10/28 03:21:23;;;;;;;6.95;3.05;;;11.70;99.90;;;;;;5072473;28;20028;-50
2023/10/28 03:23:49;;;;;;;6.63;3.90;;;11.70;99.90;;;;;;5072376;28;20107;-53
2023/10/28 03:26:15;;;;;;;11.18;3.67;;;11.70;99.90;;;;;;5038462;28;20434;-53
2023/10/28 03:28:40;;;;;;;12.75;3.50;;;11.70;99.90;;;;;;5032426;28;20489;-52
2023/10/28 03:31:11;;;;;;;9.60;3.40;;;11.70;99.90;;;;;;5032468;28;20064;-51
2023/10/28 03:33:37;;;;;;;14.35;3.22;;;11.70;99.90;;;;;;5032424;28;20022;-54
2023/10/28 03:36:04;;;;;;;9.43;3.13;;;11.70;99.90;;;;;;5032372;28;20029;-51
2023/10/28 03:38:30;;;;;;;16.25;3.90;;;11.70;99.90;;;;;;5032373;28;20037;-65
2023/10/28 03:40:56;;;;;;;9.38;3.90;;;11.70;99.90;;;;;;5033423;28;20456;-50
2023/10/28 03:43:22;;;;;;;10.60;3.00;;;11.70;99.90;;;;;;5036643;28;20037;-53
2023/10/28 03:45:48;;;;;;;9.18;2.95;;;11.70;99.90;;;;;;5036102;28;20449;-53
2023/10/28 03:48:14;;;;;;;5.40;3.17;;;11.60;99.90;;;;;;5035961;28;20035;-51
2023/10/28 03:50:40;;;;;;;14.43;3.47;;;11.60;99.90;;;;;;5035888;28;20021;-48
2023/10/28 03:53:06;;;;;;;8.00;3.38;;;11.60;99.90;;;;;;5035817;28;20021;-51
2023/10/28 03:55:32;;;;;;;6.85;3.25;;;11.70;99.90;;;;;;5036185;28;20100;-49
2023/10/28 03:57:58;;;;;;;4.82;2.63;;;11.70;99.90;;;;;;5036075;28;20030;-50
2023/10/28 04:00:23;;;;;;;10.30;3.25;;;11.70;99.90;;;;;;5053454;28;20117;-53
2023/10/28 04:02:50;;;;;;;9.82;3.42;;;11.70;99.90;;;;;;5055970;28;20013;-53
2023/10/28 04:05:16;;;;;;;6.88;3.08;;;11.70;99.90;;;;;;5055629;28;20067;-52
2023/10/28 04:07:42;;;;;;;9.40;3.03;;;11.70;99.90;;;;;;5055663;28;20423;-50
2023/10/28 04:10:07;;;;;;;7.13;3.40;;;11.70;99.90;;;;;;5055471;28;20025;-53
2023/10/28 04:12:34;;;;;;;6.32;3.30;;;11.60;99.90;;;;;;5055510;28;20025;-56
2023/10/28 04:14:59;;;;;;;13.82;3.70;;;11.60;99.90;;;;;;5055446;28;20378;-53
2023/10/28 04:17:30;;;;;;;9.07;3.92;;;11.60;99.90;;;;;;5003069;28;20106;-54
2023/10/28 04:19:55;;;;;;;4.35;2.95;;;11.60;99.90;;;;;;5056485;28;20090;-52
2023/10/28 04:22:21;;;;;;;8.48;3.03;;;11.50;99.90;;;;;;5075354;28;20020;-52
2023/10/28 04:24:46;;;;;;;6.70;3.10;;;11.50;99.90;;;;;;5075314;28;20104;-53
2023/10/28 04:27:13;;;;;;;11.48;3.33;;;11.50;99.90;;;;;;5075232;28;20021;-53
2023/10/28 04:29:38;;;;;;;6.00;2.88;;;11.50;99.90;;;;;;5075153;28;20020;-48
2023/10/28 04:32:04;;;;;;;5.30;3.28;;;11.50;99.90;;;;;;5075209;28;20082;-53
2023/10/28 04:34:30;;;;;;;3.40;2.78;;;11.50;99.90;;;;;;5036906;28;20033;-53
2023/10/28 04:36:55;;;;;;;7.22;3.25;;;11.50;99.90;;;;;;5035138;28;20447;-51
2023/10/28 04:39:23;;;;;;;8.57;2.85;;;11.50;99.90;;;;;;5017456;28;20024;-53
2023/10/28 04:41:50;;;;;;;;;;;11.50;99.90;;;;;;5035303;28;20124;-52
2023/10/28 04:44:16;;;;;;;3.28;2.10;;;11.50;99.90;;;;;;5035191;28;20380;-53
2023/10/28 04:46:41;;;;;;;3.15;2.35;;;11.50;99.90;;;;;;5034971;28;20017;-53
2023/10/28 04:49:10;;;;;;;3.30;2.50;;;11.60;99.90;;;;;;5034828;28;20025;-54
2023/10/28 04:51:35;;;;;;;5.60;2.72;;;11.60;99.90;;;;;;5043192;28;20033;-48
2023/10/28 04:54:03;;;;;;;6.82;2.70;;;11.60;99.90;;;;;;5034058;28;20383;-50
2023/10/28 04:56:28;;;;;;;5.38;2.88;;;11.60;99.90;;;;;;5034717;28;20022;-50
2023/10/28 04:58:54;;;;;;;5.30;2.78;;;11.60;99.90;;;;;;5034659;28;20028;-53
2023/10/28 05:01:21;;;;;;;6.20;2.78;;;11.60;99.90;;;;;;5034642;28;20080;-54
2023/10/28 05:03:46;;;;;;;8.70;3.05;;;11.60;99.90;;;;;;5034596;28;20044;-60
2023/10/28 05:06:12;;;;;;;5.88;2.97;;;11.60;99.90;;;;;;5034718;28;20017;-52
2023/10/28 05:08:38;;;;;;;6.72;3.17;;;11.60;99.90;;;;;;5034737;28;20048;-53
2023/10/28 05:11:04;;;;;;;7.28;2.75;;;11.60;99.90;;;;;;5034506;28;20448;-53
2023/10/28 05:13:30;;;;;;;3.60;2.58;;;11.60;99.90;;;;;;5016572;28;20433;-51
2023/10/28 05:15:56;;;;;;;8.55;3.20;;;11.60;99.90;;;;;;5034404;28;20029;-54
2023/10/28 05:18:23;;;;;;;7.55;2.63;;;11.60;99.90;;;;;;5034355;28;20022;-54
2023/10/28 05:20:48;;;;;;;4.90;2.85;;;11.60;99.90;;;;;;5069951;28;20029;-53
2023/10/28 05:23:14;;;;;;;6.78;2.78;;;11.60;99.90;;;;;;5073533;28;20095;-52
2023/10/28 05:25:40;;;;;;;12.68;3.20;;;11.60;99.90;;;;;;5034493;28;20025;-54
2023/10/28 05:28:05;;;;;;;3.05;2.75;;;11.60;99.90;;;;;;5034096;28;20041;-54
2023/10/28 05:30:31;;;;;;;5.80;3.05;;;11.60;99.90;;;;;;5034118;28;20021;-54
2023/10/28 05:32:57;;;;;;;9.95;2.40;;;11.60;99.90;;;;;;5034330;28;20156;-54
2023/10/28 05:35:22;;;;;;;7.68;2.78;;;11.60;99.90;;;;;;5016237;28;20025;-54
2023/10/28 05:37:48;;;;;;;4.28;2.28;;;11.60;99.90;;;;;;5033967;28;20048;-54
2023/10/28 05:40:14;;;;;;;7.65;2.40;;;11.60;99.90;;;;;;5034175;28;20097;-49
2023/10/28 05:42:40;;;;;;;6.05;2.83;;;11.60;99.90;;;;;;5033753;28;20041;-53
2023/10/28 05:45:07;;;;;;;5.20;2.28;;;11.60;99.90;;;;;;5033798;28;20104;-56
2023/10/28 05:47:33;;;;;;;7.85;2.38;;;11.60;99.90;;;;;;5034024;28;20553;-53
2023/10/28 05:50:04;;;;;;;4.82;2.25;;;11.60;99.90;;;;;;5033660;28;20100;-48
2023/10/28 05:52:31;;;;;;;3.75;2.40;;;11.60;99.90;;;;;;5015960;28;20470;-54
2023/10/28 05:54:58;;;;;;;8.98;3.25;;;11.60;99.90;;;;;;5048966;28;20109;-54
2023/10/28 05:57:24;;;;;;;9.63;1.77;;;11.60;99.90;;;;;;5035035;28;20029;-55
2023/10/28 05:59:49;;;;;;;3.67;1.92;;;11.60;99.90;;;;;;5053498;28;20034;-55
2023/10/28 06:02:15;;;;;;;5.50;2.15;;;11.60;99.90;;;;;;5053474;28;20056;-65
2023/10/28 06:04:41;;;;;;;2.95;1.50;;;11.60;99.90;;;;;;5052477;28;20507;-52
2023/10/28 06:07:07;;;;;;;5.90;1.70;;;11.60;99.90;;;;;;5053281;28;20040;-56
2023/10/28 06:09:33;;;;;;;3.42;1.60;;;11.60;99.90;;;;;;5053451;28;20033;-52
2023/10/28 06:11:59;;;;;;;5.90;2.25;;;11.60;99.90;;;;;;5053252;28;20066;-54
2023/10/28 06:14:25;;;;;;;5.97;2.42;;;11.60;99.90;;;;;;5052363;28;20051;-55
2023/10/28 06:16:51;;;;;;;7.28;2.42;;;11.60;99.90;;;;;;5053196;28;20076;-53
2023/10/28 06:19:21;;;;;;;6.95;2.05;;;11.60;99.90;;;;;;5040495;28;20396;-53
2023/10/28 06:21:47;;;;;;;6.55;2.67;;;11.60;99.90;;;;;;5073049;28;20028;-51
2023/10/28 06:24:13;;;;;;;8.18;1.88;;;11.60;99.90;;;;;;5073051;28;20029;-54
2023/10/28 06:26:39;;;;;;;8.60;1.95;;;11.60;99.90;;;;;;5055427;28;20025;-54
2023/10/28 06:29:05;;;;;;;8.32;1.70;;;11.60;99.90;;;;;;5073197;28;20016;-53
2023/10/28 06:31:32;;;;;;;9.43;1.40;;;11.60;99.90;;;;;;5067198;28;20035;-59
2023/10/28 06:34:00;;;;;;;4.78;1.65;;;11.60;99.90;;;;;;5015629;28;20152;-52
2023/10/28 06:36:26;;;;;;;2.80;1.30;;;11.60;99.90;;;;;;5033231;28;20029;-54
2023/10/28 06:38:55;;;;;;;2.38;1.40;;;11.60;99.90;;;;;;5032989;28;20549;-54
2023/10/28 06:41:21;;;;;;;5.88;2.33;;;11.60;99.90;;;;;;5015020;28;20562;-53
2023/10/28 06:43:46;;;;;;;6.57;2.33;;;11.70;99.90;;;;;;5032895;28;20100;-54
2023/10/28 06:46:13;;;;;;;11.23;2.35;;;11.60;99.90;;;;;;5032873;28;20029;-54
2023/10/28 06:48:38;;;;;;;5.22;2.53;;;11.70;99.90;;;;;;5033207;28;20071;-54
2023/10/28 06:51:06;;;;;;;7.72;2.63;;;11.60;99.90;;;;;;5032756;28;20421;-54
2023/10/28 06:53:32;;;;;;;5.18;2.72;;;11.70;99.90;;;;;;5048082;28;20018;-54
2023/10/28 06:56:02;;;;;;;6.15;2.22;;;11.70;99.90;;;;;;5032822;28;20437;-51
2023/10/28 06:58:28;;;;;;;6.97;2.65;;;11.70;99.90;;;;;;5033125;28;20520;-54
2023/10/28 07:00:54;;;;;;;6.03;2.45;;;11.70;99.90;;;;;;5047977;28;20017;-54
2023/10/28 07:03:20;;;;;;;7.43;2.42;;;11.80;99.90;;;;;;5032691;28;20078;-53
2023/10/28 07:05:46;;;;;;;6.00;1.70;;;11.80;99.90;;;;;;5036933;28;20025;-54
2023/10/28 07:08:11;;;;;;;8.38;2.13;;;11.80;99.90;;;;;;5052424;28;20092;-54
2023/10/28 07:10:37;;;;;;;10.13;2.25;;;11.80;99.90;;;;;;5052519;28;20025;-54
2023/10/28 07:13:03;;;;;;;4.88;1.85;;;11.80;99.90;;;;;;5052495;28;20503;-54
2023/10/28 07:15:28;;;;;;;6.53;2.50;;;11.80;99.90;;;;;;5053105;28;20485;-57
2023/10/28 07:17:54;;;;;;;5.50;1.63;;;11.80;99.90;;;;;;5056475;28;20386;-51
2023/10/28 07:20:20;;;;;;;7.63;1.90;;;11.80;99.90;;;;;;5070594;28;20024;-49
2023/10/28 07:22:46;;;;;;;7.72;2.15;;;11.90;99.90;;;;;;5067127;28;20473;-51
2023/10/28 07:25:12;;;;;;;4.20;2.05;;;11.90;99.90;;;;;;5036480;28;20022;-55
2023/10/28 07:27:38;;;;;;;7.85;2.08;;;11.90;99.90;;;;;;5036431;28;20359;-52
2023/10/28 07:30:05;;;;;;;13.95;2.15;;;11.90;99.90;;;;;;5036332;28;20481;-53
2023/10/28 07:32:31;;;;;;;1.95;1.67;;;11.90;99.90;;;;;;5036308;28;20026;-49
2023/10/28 07:34:57;;;;;;;4.68;1.65;;;12.00;99.90;;;;;;5018561;28;20116;-54
2023/10/28 07:37:23;;;;;;;10.52;1.52;;;12.00;99.90;;;;;;5036225;28;20136;-53
2023/10/28 07:39:49;;;;;;;6.47;1.88;;;12.10;99.90;;;;;;5018848;28;20123;-53
2023/10/28 07:42:15;;;;;;;6.97;2.13;;;12.10;99.90;;;;;;5018223;28;20133;-54
2023/10/28 07:44:41;;;;;;;8.07;2.22;;;12.10;99.90;;;;;;5036162;28;20495;-53
2023/10/28 07:47:08;;;;;;;3.40;1.67;;;12.00;99.90;;;;;;5036088;28;20108;-53
2023/10/28 07:49:34;;;;;;;6.53;2.22;;;12.00;99.90;;;;;;5035945;28;20034;-52
2023/10/28 07:51:59;;;;;;;5.10;1.67;;;12.00;99.90;;;;;;5035907;28;20018;-51
2023/10/28 07:54:25;;;;;;;8.73;1.70;;;12.10;99.90;;;;;;5051482;28;20010;-71
2023/10/28 07:56:51;;;;;;;4.72;1.48;;;12.10;99.90;;;;;;5040978;28;20017;-53
2023/10/28 07:59:17;;;;;;;4.43;1.60;;;12.10;99.90;;;;;;5055800;28;20492;-56
2023/10/28 08:01:42;;;;;;;3.72;1.65;;;12.00;99.90;;;;;;5055765;28;20234;-51
2023/10/28 08:04:08;;;;;;;3.17;1.50;;;12.00;99.90;;;;;;5055696;28;20036;-52
2023/10/28 08:06:34;;;;;;;15.55;2.42;;;12.00;99.90;;;;;;5055642;28;20114;-50
2023/10/28 08:09:01;;;;;;;5.15;2.03;;;12.10;99.90;;;;;;5055519;28;20113;-52
2023/10/28 08:11:28;;;;;;;3.85;1.50;;;12.10;99.90;;;;;;5037644;28;20033;-54
2023/10/28 08:13:54;;;;;;;4.05;1.40;;;12.10;99.90;;;;;;5021275;28;20043;-54
2023/10/28 08:16:20;;;;;;;6.13;2.00;;;12.10;99.90;;;;;;5055483;28;20092;-54
2023/10/28 08:18:47;;;;;;;8.70;1.33;;;12.10;99.90;;;;;;5056437;28;20111;-54
2023/10/28 08:21:16;;;;;;;10.45;1.90;;;12.20;99.90;;;;;;5075393;28;20089;-52
2023/10/28 08:23:43;;;;;;;5.97;1.70;;;12.20;99.90;;;;;;5075524;28;20473;-54
2023/10/28 08:26:17;;;;;;;4.70;1.88;;;12.20;99.90;;;;;;5075155;28;20028;-54
2023/10/28 08:28:43;;;;;;;5.82;1.75;;;12.30;99.90;;;;;;5074267;28;20047;-55
2023/10/28 08:31:09;;;;;;;5.63;1.40;;;12.30;99.90;;;;;;5058911;28;20018;-54
2023/10/28 08:33:35;;;;;;;7.32;1.90;;;12.30;99.90;;;;;;5017748;28;20056;-54
2023/10/28 08:36:01;;;;;;;5.45;1.85;;;12.30;99.90;;;;;;5035154;28;20024;-52
2023/10/28 08:38:27;;;;;;;5.07;1.52;;;12.40;99.90;;;;;;5017303;28;20482;-52
2023/10/28 08:40:53;;;;;;;8.68;1.30;;;12.50;99.90;;;;;;5034837;28;20052;-51
2023/10/28 08:43:19;;;;;;;6.00;1.80;;;12.50;99.90;;;;;;5035048;28;20025;-49
2023/10/28 08:45:47;;;;;;;7.05;1.52;;;12.60;99.90;;;;;;5035249;28;20032;-47
2023/10/28 08:48:14;;;;;;;1.55;1.13;;;12.70;99.90;;;;;;5018129;28;20025;-53
2023/10/28 08:50:45;;;;;;;8.00;1.33;;;12.80;99.90;;;;;;5034826;28;20381;-48
2023/10/28 08:53:15;;;;;;;4.93;1.63;;;12.90;99.90;;;;;;5034869;28;20474;-53
2023/10/28 08:55:41;;;;;;;16.27;2.75;;;13.00;99.90;;;;;;5034788;28;20021;-52
2023/10/28 08:58:06;;;;;;;8.93;1.42;;;13.20;99.90;;;;;;5034955;28;20022;-61
2023/10/28 09:00:35;;;;;;;3.47;1.40;;;13.30;99.90;;;;;;5034708;28;20021;-52
2023/10/28 09:03:04;;;;;;;7.00;1.67;;;13.30;99.90;;;;;;5034663;28;20478;-53
2023/10/28 09:05:30;;;;;;;8.45;1.30;;;13.30;99.90;;;;;;5045035;28;20024;-49
2023/10/28 09:07:55;;;;;;;6.78;1.33;;;13.30;99.90;;;;;;5054432;28;20029;-53
2023/10/28 09:10:21;;;;;;;8.98;2.00;;;13.30;99.90;;;;;;5054363;28;20440;-53
2023/10/28 09:12:49;;;;;;;4.90;1.63;;;13.40;99.90;;;;;;5054284;28;20021;-51
2023/10/28 09:15:15;;;;;;;6.57;1.90;;;13.40;99.90;;;;;;5054351;28;20025;-53
2023/10/28 09:17:40;;;;;;;2.35;1.23;;;13.50;99.90;;;;;;5054309;28;20021;-52
2023/10/28 09:20:11;;;;;;;8.07;1.70;;;13.50;99.90;;;;;;5066180;28;20135;-52
2023/10/28 09:22:41;;;;;;;5.00;1.20;;;13.50;99.90;;;;;;5050897;28;20104;-51
2023/10/28 09:25:09;;;;;;;7.10;1.27;;;13.60;99.90;;;;;;5034162;28;20025;-50
2023/10/28 09:27:35;;;;;;;;;;;13.80;99.90;;;;;;5024526;28;20033;-49
2023/10/28 09:30:10;;;;;;;5.65;1.38;;;13.90;99.90;;;;;;5040790;28;20404;-49
2023/10/28 09:32:37;;;;;;;6.25;1.73;;;13.90;99.90;;;;;;5033897;28;20072;-53
2023/10/28 09:35:07;;;;;;;16.77;1.45;;;13.80;99.90;;;;;;5034135;28;20555;-50
2023/10/28 09:37:37;;;;;;;6.90;1.75;;;13.70;99.90;;;;;;5033956;28;20024;-53
2023/10/28 09:40:05;;;;;;;4.28;1.23;;;13.80;99.90;;;;;;5033831;28;20039;-56
2023/10/28 09:42:33;;;;;;;4.75;1.52;;;13.70;99.90;;;;;;5053559;28;20041;-52
2023/10/28 09:44:59;;;;;;;6.88;1.52;;;13.80;99.90;;;;;;5053758;28;20104;-52
2023/10/28 09:47:37;;;;;;;1.95;1.15;;;13.80;99.90;;;;;;5053721;28;20017;-49
2023/10/28 09:50:09;;;;;;;2.28;1.00;;;13.80;99.90;;;;;;5046392;28;20025;-52
2023/10/28 09:52:41;;;;;;;8.27;1.60;;;13.80;99.90;;;;;;5053403;28;20074;-54
2023/10/28 09:55:11;;;;;;;10.75;1.33;;;13.90;99.90;;;;;;5053544;28;20025;-58
2023/10/28 09:57:39;;;;;;;7.53;1.40;;;13.90;99.90;;;;;;5042775;28;20103;-53
2023/10/28 10:00:10;;;;;;;9.20;2.05;;;13.90;99.90;;;;;;5051804;28;20547;-54
2023/10/28 10:03:03;;;;;;;2.35;1.73;;;13.80;99.90;;;;;;5036542;28;20052;-51
2023/10/28 10:05:45;;;;;;;3.63;2.03;;;13.90;99.90;;;;;;5053302;28;20571;-54
2023/10/28 10:08:21;;;;;;;6.07;1.20;;;14.00;99.90;;;;;;5018927;28;20608;-53
2023/10/28 10:10:49;;;;;;;6.55;1.38;;;14.10;99.90;;;;;;5035655;28;20488;-52
2023/10/28 10:13:15;;;;;;;2.40;1.55;;;14.10;99.90;;;;;;5052404;28;20110;-53
2023/10/28 10:15:55;;;;;;;2.72;1.38;;;14.20;99.90;;;;;;5053148;28;20025;-53
2023/10/28 10:18:31;;;;;;;3.92;1.45;;;14.20;99.90;;;;;;5035405;28;20039;-54
2023/10/28 10:21:06;;;;;;;3.78;1.48;;;14.20;99.90;;;;;;5035314;28;20461;-52
2023/10/28 10:23:42;;;;;;;5.13;1.42;;;14.20;99.90;;;;;;5053421;28;20484;-53
2023/10/28 10:26:18;;;;;;;4.75;1.67;;;14.20;99.90;;;;;;5051785;28;20013;-54
2023/10/28 10:28:46;;;;;;;5.18;2.17;;;14.20;99.90;;;;;;5032977;28;20500;-53
2023/10/28 10:31:12;;;;;;;4.57;1.55;;;14.30;99.90;;;;;;5015401;28;20028;-53
2023/10/28 10:33:38;;;;;;;6.65;1.77;;;14.20;99.90;;;;;;5033342;28;20014;-54
2023/10/28 10:36:25;;;;;;;5.68;1.55;;;14.20;99.90;;;;;;5033276;28;20367;-53
2023/10/28 10:38:51;;;;;;;11.13;1.50;;;14.20;99.90;;;;;;5033041;28;20363;-53
2023/10/28 10:41:29;;;;;;;11.70;1.75;;;14.10;99.90;;;;;;5041314;28;20052;-56
2023/10/28 10:43:55;;;;;;;4.07;1.20;;;14.10;99.90;;;;;;5052725;28;20118;-54
2023/10/28 10:46:21;;;;;;;6.97;1.27;;;14.20;99.90;;;;;;5051222;28;20446;-53
2023/10/28 10:48:47;;;;;;;7.32;1.42;;;14.30;99.90;;;;;;5033902;28;20021;-54
2023/10/28 10:51:15;;;;;;;8.23;1.70;;;14.40;99.90;;;;;;5040685;28;20025;-53
2023/10/28 10:53:44;;;;;;;2.85;1.15;;;14.50;99.90;;;;;;5052561;28;20104;-52
2023/10/28 10:56:20;;;;;;;3.55;1.10;;;14.60;99.90;;;;;;5038701;28;20385;-55
2023/10/28 10:58:46;;;;;;;7.50;1.75;;;14.60;99.90;;;;;;5041321;28;20063;-53
2023/10/28 11:01:12;;;;;;;1.30;1.23;;;14.60;99.90;;;;;;5051949;28;20496;-53
2023/10/28 11:03:39;;;;;;;2.35;1.45;;;14.60;99.90;;;;;;5052559;28;20499;-54
2023/10/28 11:06:05;;;;;;;5.15;1.48;;;14.60;99.90;;;;;;5052543;28;20029;-53
2023/10/28 11:08:31;;;;;;;5.72;1.30;;;14.50;99.90;;;;;;5052321;28;20481;-53
2023/10/28 11:10:57;;;;;;;4.88;1.38;;;14.50;99.90;;;;;;5050854;28;20104;-54
2023/10/28 11:13:22;;;;;;;3.80;1.30;;;14.50;99.90;;;;;;5052513;28;20480;-52
2023/10/28 11:15:49;;;;;;;5.72;1.40;;;14.50;99.90;;;;;;5052503;28;20509;-51
2023/10/28 11:18:15;;;;;;;6.53;1.52;;;14.50;99.90;;;;;;5034845;28;20492;-53
2023/10/28 11:20:42;;;;;;;6.80;1.88;;;14.50;99.90;;;;;;5050691;28;20014;-51
2023/10/28 11:23:08;;;;;;;3.30;1.15;;;14.50;99.90;;;;;;5044575;28;20074;-51
2023/10/28 11:25:35;;;;;;;5.30;1.33;;;14.50;99.90;;;;;;5048495;28;20025;-54
2023/10/28 11:28:08;;;;;;;4.45;1.20;;;14.50;99.90;;;;;;5052591;28;20484;-53
2023/10/28 11:30:34;;;;;;;4.85;1.20;;;14.50;99.90;;;;;;5052361;28;20083;-53
2023/10/28 11:33:11;;;;;;;2.25;1.40;;;14.50;99.90;;;;;;5052580;28;20404;-50
2023/10/28 11:35:37;;;;;;;7.40;1.15;;;14.60;99.90;;;;;;5052384;28;20021;-52
2023/10/28 11:38:03;;;;;;;2.50;0.80;;;14.60;99.90;;;;;;5052367;28;20056;-54
2023/10/28 11:40:29;;;;;;;9.45;1.70;;;14.60;99.90;;;;;;5048722;28;20096;-51
2023/10/28 11:42:55;;;;;;;3.08;1.35;;;14.60;99.90;;;;;;5036299;28;20489;-54
2023/10/28 11:45:21;;;;;;;4.35;1.58;;;14.60;99.90;;;;;;5039889;28;20025;-51
2023/10/28 11:47:47;;;;;;;3.72;1.25;;;14.60;99.90;;;;;;5052089;28;20060;-49
2023/10/28 11:50:12;;;;;;;7.05;1.25;;;14.50;99.90;;;;;;5051813;28;20040;-49
2023/10/28 11:52:39;;;;;;;8.48;1.25;;;14.50;99.90;;;;;;5050633;28;20436;-52
2023/10/28 11:55:05;;;;;;;2.42;1.08;;;14.40;99.90;;;;;;5051201;28;20108;-51
2023/10/28 11:57:34;;;;;;;4.18;1.67;;;14.40;99.90;;;;;;5034345;28;20436;-52
2023/10/28 11:59:59;;;;;;;4.90;1.00;;;14.40;99.90;;;;;;5052072;28;20033;-53
2023/10/28 12:02:25;;;;;;;7.95;1.33;;;14.50;99.90;;;;;;5036431;28;20090;-54
2023/10/28 12:04:51;;;;;;;5.03;1.25;;;14.50;99.90;;;;;;5019067;28;20024;-55
2023/10/28 12:07:17;;;;;;;11.55;1.67;;;14.60;99.90;;;;;;5035599;28;20025;-64
2023/10/28 12:09:42;;;;;;;3.80;1.20;;;14.50;99.90;;;;;;5038928;28;20388;-54
2023/10/28 12:12:11;;;;;;;6.18;1.40;;;14.60;99.90;;;;;;5054716;28;20366;-51
2023/10/28 12:14:37;;;;;;;8.15;1.05;;;14.60;99.90;;;;;;5055486;28;20021;-52
2023/10/28 12:17:02;;;;;;;10.55;1.42;;;14.70;99.90;;;;;;5055423;28;20025;-47
2023/10/28 12:19:28;;;;;;;10.70;1.40;;;14.80;99.90;;;;;;5055421;28;20059;-55
2023/10/28 12:21:54;;;;;;;6.40;1.73;;;15.00;99.90;;;;;;5055330;28;20571;-54
2023/10/28 12:24:19;;;;;;;11.60;2.03;;;15.00;99.90;;;;;;5055301;28;20021;-54
2023/10/28 12:26:45;;;;;;;7.43;1.27;;;15.10;99.90;;;;;;5055547;28;20031;-55
2023/10/28 12:29:11;;;;;;;6.03;1.50;;;15.20;99.90;;;;;;5054218;28;20024;-55
2023/10/28 12:31:36;;;;;;;12.52;2.00;;;15.20;99.90;;;;;;5055169;28;20028;-55
2023/10/28 12:34:03;;;;;;;9.38;1.80;;;15.20;99.90;;;;;;5037205;28;20389;-54
2023/10/28 12:36:30;;;;;;;4.95;1.20;;;15.20;99.90;;;;;;5037204;28;20017;-54
2023/10/28 12:38:55;;;;;;;4.28;1.52;;;15.10;99.90;;;;;;5055056;28;20032;-54
2023/10/28 12:41:21;;;;;;;5.05;1.77;;;15.20;99.90;;;;;;5054711;28;20045;-54
2023/10/28 12:43:47;;;;;;;8.63;1.10;;;15.10;99.90;;;;;;5054891;28;20066;-43